sensor_id;sensor_type;location;lat;lon;timestamp;P1;durP1;ratioP1;P2;durP2;ratioP2
31526;SDS011;18136;42.236;-73.040;2023-05-10T00:00:35;1.38;;;0.93;;
31526;SDS011;18136;42.236;-73.040;2023-05-10T00:03:01;2.40;;;1.00;;
31526;SDS011;18136;42.236;-73.040;2023-05-10T00:05:29;1.35;;;0.88;;
31526;SDS011;18136;42.236;-73.040;2023-05-10T00:07:55;1.98;;;1.10;;
31526;SDS011;18136;42.236;-73.040;2023-05-10T00:10:22;2.65;;;0.90;;
31526;SDS011;18136;42.236;-73.040;2023-05-10T00:12:48;1.33;;;0.95;;
31526;SDS011;18136;42.236;-73.040;2023-05-10T00:15:14;2.13;;;0.70;;
31526;SDS011;18136;42.236;-73.040;2023-05-10T00:17:40;1.35;;;1.10;;
31526;SDS011;18136;42.236;-73.040;2023-05-10T00:20:06;2.58;;;0.95;;
31526;SDS011;18136;42.236;-73.040;2023-05-10T00:22:33;1.45;;;0.88;;
31526;SDS011;18136;42.236;-73.040;2023-05-10T00:24:59;1.30;;;0.80;;
31526;SDS011;18136;42.236;-73.040;2023-05-10T00:27:26;0.93;;;0.88;;
31526;SDS011;18136;42.236;-73.040;2023-05-10T00:29:53;1.23;;;0.75;;
31526;SDS011;18136;42.236;-73.040;2023-05-10T00:32:19;6.40;;;1.35;;
31526;SDS011;18136;42.236;-73.040;2023-05-10T00:34:45;1.48;;;0.90;;
31526;SDS011;18136;42.236;-73.040;2023-05-10T00:37:11;0.82;;;0.80;;
31526;SDS011;18136;42.236;-73.040;2023-05-10T00:39:37;0.80;;;0.80;;
31526;SDS011;18136;42.236;-73.040;2023-05-10T00:42:03;3.00;;;1.05;;
31526;SDS011;18136;42.236;-73.040;2023-05-10T00:44:30;2.08;;;1.48;;
31526;SDS011;18136;42.236;-73.040;2023-05-10T00:46:56;2.45;;;0.98;;
31526;SDS011;18136;42.236;-73.040;2023-05-10T00:49:23;1.88;;;1.00;;
31526;SDS011;18136;42.236;-73.040;2023-05-10T00:51:49;1.02;;;0.80;;
31526;SDS011;18136;42.236;-73.040;2023-05-10T00:54:16;1.38;;;1.00;;
31526;SDS011;18136;42.236;-73.040;2023-05-10T00:56:42;1.45;;;1.00;;
31526;SDS011;18136;42.236;-73.040;2023-05-10T00:59:14;3.30;;;1.10;;
31526;SDS011;18136;42.236;-73.040;2023-05-10T01:01:46;2.13;;;1.00;;
31526;SDS011;18136;42.236;-73.040;2023-05-10T01:04:13;2.40;;;1.35;;
31526;SDS011;18136;42.236;-73.040;2023-05-10T01:06:43;3.13;;;0.90;;
31526;SDS011;18136;42.236;-73.040;2023-05-10T01:09:13;2.33;;;1.20;;
31526;SDS011;18136;42.236;-73.040;2023-05-10T01:11:39;2.25;;;0.80;;
31526;SDS011;18136;42.236;-73.040;2023-05-10T01:14:06;1.63;;;0.90;;
31526;SDS011;18136;42.236;-73.040;2023-05-10T01:16:33;4.03;;;1.45;;
31526;SDS011;18136;42.236;-73.040;2023-05-10T01:19:23;1.70;;;0.90;;
31526;SDS011;18136;42.236;-73.040;2023-05-10T01:25:10;3.80;;;1.10;;
31526;SDS011;18136;42.236;-73.040;2023-05-10T01:28:13;2.00;;;1.20;;
31526;SDS011;18136;42.236;-73.040;2023-05-10T01:33:43;3.80;;;1.20;;
31526;SDS011;18136;42.236;-73.040;2023-05-10T01:41:43;4.75;;;1.70;;
31526;SDS011;18136;42.236;-73.040;2023-05-10T01:47:02;3.72;;;1.10;;
31526;SDS011;18136;42.236;-73.040;2023-05-10T01:49:52;2.58;;;1.20;;
31526;SDS011;18136;42.236;-73.040;2023-05-10T01:52:22;1.25;;;1.10;;
31526;SDS011;18136;42.236;-73.040;2023-05-10T01:55:16;1.73;;;1.00;;
31526;SDS011;18136;42.236;-73.040;2023-05-10T01:57:48;2.72;;;1.30;;
31526;SDS011;18136;42.236;-73.040;2023-05-10T02:00:30;2.55;;;1.30;;
31526;SDS011;18136;42.236;-73.040;2023-05-10T02:02:57;2.67;;;1.10;;
31526;SDS011;18136;42.236;-73.040;2023-05-10T02:05:33;3.20;;;1.60;;
31526;SDS011;18136;42.236;-73.040;2023-05-10T02:08:26;4.63;;;1.52;;
31526;SDS011;18136;42.236;-73.040;2023-05-10T02:11:18;1.45;;;1.15;;
31526;SDS011;18136;42.236;-73.040;2023-05-10T02:13:50;2.17;;;1.40;;
31526;SDS011;18136;42.236;-73.040;2023-05-10T02:16:39;2.47;;;1.15;;
31526;SDS011;18136;42.236;-73.040;2023-05-10T02:19:07;1.95;;;0.93;;
31526;SDS011;18136;42.236;-73.040;2023-05-10T02:21:45;2.17;;;1.20;;
31526;SDS011;18136;42.236;-73.040;2023-05-10T02:24:14;4.05;;;1.42;;
31526;SDS011;18136;42.236;-73.040;2023-05-10T02:26:46;2.20;;;1.02;;
31526;SDS011;18136;42.236;-73.040;2023-05-10T02:29:19;1.98;;;1.38;;
31526;SDS011;18136;42.236;-73.040;2023-05-10T02:31:48;1.83;;;1.30;;
31526;SDS011;18136;42.236;-73.040;2023-05-10T02:34:18;1.35;;;1.00;;
31526;SDS011;18136;42.236;-73.040;2023-05-10T02:36:49;1.75;;;0.93;;
31526;SDS011;18136;42.236;-73.040;2023-05-10T02:39:23;7.10;;;1.13;;
31526;SDS011;18136;42.236;-73.040;2023-05-10T02:41:58;2.08;;;0.95;;
31526;SDS011;18136;42.236;-73.040;2023-05-10T02:44:29;1.65;;;1.10;;
31526;SDS011;18136;42.236;-73.040;2023-05-10T02:47:22;2.75;;;1.00;;
31526;SDS011;18136;42.236;-73.040;2023-05-10T02:50:11;3.85;;;1.10;;
31526;SDS011;18136;42.236;-73.040;2023-05-10T02:52:44;2.10;;;1.08;;
31526;SDS011;18136;42.236;-73.040;2023-05-10T02:55:28;2.00;;;1.05;;
31526;SDS011;18136;42.236;-73.040;2023-05-10T02:58:11;1.23;;;1.05;;
31526;SDS011;18136;42.236;-73.040;2023-05-10T03:00:39;3.47;;;1.05;;
31526;SDS011;18136;42.236;-73.040;2023-05-10T03:03:17;1.35;;;1.00;;
31526;SDS011;18136;42.236;-73.040;2023-05-10T03:05:50;1.98;;;1.02;;
31526;SDS011;18136;42.236;-73.040;2023-05-10T03:08:20;3.22;;;1.40;;
31526;SDS011;18136;42.236;-73.040;2023-05-10T03:19:57;2.38;;;1.10;;
31526;SDS011;18136;42.236;-73.040;2023-05-10T03:22:32;4.22;;;1.10;;
31526;SDS011;18136;42.236;-73.040;2023-05-10T03:25:06;1.25;;;1.00;;
31526;SDS011;18136;42.236;-73.040;2023-05-10T03:27:42;2.65;;;1.13;;
31526;SDS011;18136;42.236;-73.040;2023-05-10T03:30:10;1.00;;;0.90;;
31526;SDS011;18136;42.236;-73.040;2023-05-10T03:32:37;1.38;;;1.00;;
31526;SDS011;18136;42.236;-73.040;2023-05-10T03:35:18;2.45;;;1.00;;
31526;SDS011;18136;42.236;-73.040;2023-05-10T03:37:52;3.53;;;1.17;;
31526;SDS011;18136;42.236;-73.040;2023-05-10T03:40:22;2.97;;;1.25;;
31526;SDS011;18136;42.236;-73.040;2023-05-10T03:42:57;3.10;;;1.08;;
31526;SDS011;18136;42.236;-73.040;2023-05-10T03:45:25;2.35;;;1.20;;
31526;SDS011;18136;42.236;-73.040;2023-05-10T03:47:55;2.55;;;1.10;;
31526;SDS011;18136;42.236;-73.040;2023-05-10T03:50:27;1.40;;;1.20;;
31526;SDS011;18136;42.236;-73.040;2023-05-10T03:53:04;1.75;;;1.20;;
31526;SDS011;18136;42.236;-73.040;2023-05-10T03:55:30;2.97;;;0.90;;
31526;SDS011;18136;42.236;-73.040;2023-05-10T03:58:16;1.52;;;1.30;;
31526;SDS011;18136;42.236;-73.040;2023-05-10T04:00:44;1.60;;;1.00;;
31526;SDS011;18136;42.236;-73.040;2023-05-10T04:03:11;1.35;;;1.10;;
31526;SDS011;18136;42.236;-73.040;2023-05-10T04:05:43;2.83;;;1.20;;
31526;SDS011;18136;42.236;-73.040;2023-05-10T04:08:09;3.40;;;1.08;;
31526;SDS011;18136;42.236;-73.040;2023-05-10T04:10:41;1.77;;;1.20;;
31526;SDS011;18136;42.236;-73.040;2023-05-10T04:13:19;2.70;;;1.33;;
31526;SDS011;18136;42.236;-73.040;2023-05-10T04:15:46;2.70;;;1.17;;
31526;SDS011;18136;42.236;-73.040;2023-05-10T04:18:12;3.92;;;1.10;;
31526;SDS011;18136;42.236;-73.040;2023-05-10T04:20:46;2.72;;;1.00;;
31526;SDS011;18136;42.236;-73.040;2023-05-10T04:23:15;4.05;;;1.10;;
31526;SDS011;18136;42.236;-73.040;2023-05-10T04:25:43;5.47;;;1.20;;
31526;SDS011;18136;42.236;-73.040;2023-05-10T04:28:12;3.33;;;1.25;;
31526;SDS011;18136;42.236;-73.040;2023-05-10T04:30:38;2.13;;;1.27;;
31526;SDS011;18136;42.236;-73.040;2023-05-10T04:33:08;1.20;;;1.10;;
31526;SDS011;18136;42.236;-73.040;2023-05-10T04:35:34;4.18;;;1.40;;
31526;SDS011;18136;42.236;-73.040;2023-05-10T04:38:05;1.25;;;1.00;;
31526;SDS011;18136;42.236;-73.040;2023-05-10T04:40:44;1.75;;;1.20;;
31526;SDS011;18136;42.236;-73.040;2023-05-10T04:43:11;2.60;;;1.30;;
31526;SDS011;18136;42.236;-73.040;2023-05-10T04:45:38;4.55;;;1.60;;
31526;SDS011;18136;42.236;-73.040;2023-05-10T04:48:04;1.65;;;1.10;;
31526;SDS011;18136;42.236;-73.040;2023-05-10T04:50:30;4.63;;;1.50;;
31526;SDS011;18136;42.236;-73.040;2023-05-10T04:52:56;2.17;;;1.20;;
31526;SDS011;18136;42.236;-73.040;2023-05-10T04:55:23;2.20;;;1.10;;
31526;SDS011;18136;42.236;-73.040;2023-05-10T04:57:49;2.33;;;1.27;;
31526;SDS011;18136;42.236;-73.040;2023-05-10T05:00:15;2.42;;;1.23;;
31526;SDS011;18136;42.236;-73.040;2023-05-10T05:02:42;3.47;;;1.23;;
31526;SDS011;18136;42.236;-73.040;2023-05-10T05:05:10;4.63;;;1.00;;
31526;SDS011;18136;42.236;-73.040;2023-05-10T05:07:37;1.95;;;1.10;;
31526;SDS011;18136;42.236;-73.040;2023-05-10T05:10:06;2.55;;;1.20;;
31526;SDS011;18136;42.236;-73.040;2023-05-10T05:12:33;1.98;;;1.17;;
31526;SDS011;18136;42.236;-73.040;2023-05-10T05:15:02;2.88;;;1.30;;
31526;SDS011;18136;42.236;-73.040;2023-05-10T05:17:29;1.80;;;1.10;;
31526;SDS011;18136;42.236;-73.040;2023-05-10T05:19:56;2.42;;;1.10;;
31526;SDS011;18136;42.236;-73.040;2023-05-10T05:22:22;1.48;;;1.25;;
31526;SDS011;18136;42.236;-73.040;2023-05-10T05:24:53;2.28;;;1.23;;
31526;SDS011;18136;42.236;-73.040;2023-05-10T05:27:19;1.92;;;1.20;;
31526;SDS011;18136;42.236;-73.040;2023-05-10T05:29:50;2.55;;;1.30;;
31526;SDS011;18136;42.236;-73.040;2023-05-10T05:32:17;4.05;;;1.25;;
31526;SDS011;18136;42.236;-73.040;2023-05-10T05:34:46;5.82;;;1.17;;
31526;SDS011;18136;42.236;-73.040;2023-05-10T05:37:19;1.48;;;1.23;;
31526;SDS011;18136;42.236;-73.040;2023-05-10T05:39:46;2.78;;;1.45;;
31526;SDS011;18136;42.236;-73.040;2023-05-10T05:42:13;3.28;;;1.17;;
31526;SDS011;18136;42.236;-73.040;2023-05-10T05:44:41;3.92;;;1.52;;
31526;SDS011;18136;42.236;-73.040;2023-05-10T05:47:07;1.55;;;1.33;;
31526;SDS011;18136;42.236;-73.040;2023-05-10T05:49:33;2.85;;;1.40;;
31526;SDS011;18136;42.236;-73.040;2023-05-10T05:52:00;6.18;;;1.40;;
31526;SDS011;18136;42.236;-73.040;2023-05-10T05:54:29;1.77;;;1.40;;
31526;SDS011;18136;42.236;-73.040;2023-05-10T05:56:57;5.00;;;1.50;;
31526;SDS011;18136;42.236;-73.040;2023-05-10T05:59:23;3.22;;;1.55;;
31526;SDS011;18136;42.236;-73.040;2023-05-10T06:01:50;1.63;;;1.20;;
31526;SDS011;18136;42.236;-73.040;2023-05-10T06:04:16;3.65;;;1.30;;
31526;SDS011;18136;42.236;-73.040;2023-05-10T06:06:43;3.08;;;1.73;;
31526;SDS011;18136;42.236;-73.040;2023-05-10T06:09:10;3.22;;;1.50;;
31526;SDS011;18136;42.236;-73.040;2023-05-10T06:11:36;2.45;;;1.60;;
31526;SDS011;18136;42.236;-73.040;2023-05-10T06:14:03;2.80;;;1.45;;
31526;SDS011;18136;42.236;-73.040;2023-05-10T06:16:30;3.63;;;1.40;;
31526;SDS011;18136;42.236;-73.040;2023-05-10T06:18:56;1.52;;;1.30;;
31526;SDS011;18136;42.236;-73.040;2023-05-10T06:21:22;2.92;;;1.50;;
31526;SDS011;18136;42.236;-73.040;2023-05-10T06:23:48;3.05;;;1.55;;
31526;SDS011;18136;42.236;-73.040;2023-05-10T06:26:15;2.03;;;1.25;;
31526;SDS011;18136;42.236;-73.040;2023-05-10T06:28:41;2.10;;;1.52;;
31526;SDS011;18136;42.236;-73.040;2023-05-10T06:31:07;2.58;;;1.50;;
31526;SDS011;18136;42.236;-73.040;2023-05-10T06:33:33;1.92;;;1.35;;
31526;SDS011;18136;42.236;-73.040;2023-05-10T06:35:59;2.45;;;1.50;;
31526;SDS011;18136;42.236;-73.040;2023-05-10T06:38:25;3.05;;;1.60;;
31526;SDS011;18136;42.236;-73.040;2023-05-10T06:40:52;4.10;;;1.52;;
31526;SDS011;18136;42.236;-73.040;2023-05-10T06:43:18;2.55;;;1.55;;
31526;SDS011;18136;42.236;-73.040;2023-05-10T06:45:44;3.55;;;1.52;;
31526;SDS011;18136;42.236;-73.040;2023-05-10T06:48:10;2.85;;;1.60;;
31526;SDS011;18136;42.236;-73.040;2023-05-10T06:50:36;3.05;;;1.73;;
31526;SDS011;18136;42.236;-73.040;2023-05-10T06:53:02;2.63;;;1.35;;
31526;SDS011;18136;42.236;-73.040;2023-05-10T06:55:28;5.22;;;1.60;;
31526;SDS011;18136;42.236;-73.040;2023-05-10T06:57:55;1.70;;;1.60;;
31526;SDS011;18136;42.236;-73.040;2023-05-10T07:00:21;6.18;;;1.60;;
31526;SDS011;18136;42.236;-73.040;2023-05-10T07:02:47;1.95;;;1.75;;
31526;SDS011;18136;42.236;-73.040;2023-05-10T07:05:13;2.25;;;1.70;;
31526;SDS011;18136;42.236;-73.040;2023-05-10T07:07:40;4.70;;;2.15;;
31526;SDS011;18136;42.236;-73.040;2023-05-10T07:10:06;7.53;;;2.00;;
31526;SDS011;18136;42.236;-73.040;2023-05-10T07:12:33;2.30;;;1.63;;
31526;SDS011;18136;42.236;-73.040;2023-05-10T07:14:59;5.05;;;1.80;;
31526;SDS011;18136;42.236;-73.040;2023-05-10T07:17:25;1.92;;;1.50;;
31526;SDS011;18136;42.236;-73.040;2023-05-10T07:19:51;2.95;;;1.80;;
31526;SDS011;18136;42.236;-73.040;2023-05-10T07:22:17;2.85;;;1.70;;
31526;SDS011;18136;42.236;-73.040;2023-05-10T07:24:43;3.63;;;1.98;;
31526;SDS011;18136;42.236;-73.040;2023-05-10T07:27:10;3.10;;;2.30;;
31526;SDS011;18136;42.236;-73.040;2023-05-10T07:29:36;5.70;;;2.42;;
31526;SDS011;18136;42.236;-73.040;2023-05-10T07:32:02;3.40;;;1.85;;
31526;SDS011;18136;42.236;-73.040;2023-05-10T07:34:29;3.05;;;1.45;;
31526;SDS011;18136;42.236;-73.040;2023-05-10T07:36:57;3.70;;;2.17;;
31526;SDS011;18136;42.236;-73.040;2023-05-10T07:39:23;5.10;;;1.95;;
31526;SDS011;18136;42.236;-73.040;2023-05-10T07:41:49;5.53;;;1.85;;
31526;SDS011;18136;42.236;-73.040;2023-05-10T07:44:15;1.88;;;1.50;;
31526;SDS011;18136;42.236;-73.040;2023-05-10T07:46:44;3.05;;;2.25;;
31526;SDS011;18136;42.236;-73.040;2023-05-10T07:49:10;3.20;;;1.80;;
31526;SDS011;18136;42.236;-73.040;2023-05-10T07:51:36;3.97;;;1.67;;
31526;SDS011;18136;42.236;-73.040;2023-05-10T07:54:02;4.22;;;1.88;;
31526;SDS011;18136;42.236;-73.040;2023-05-10T07:56:29;1.88;;;1.70;;
31526;SDS011;18136;42.236;-73.040;2023-05-10T07:58:57;2.40;;;1.40;;
31526;SDS011;18136;42.236;-73.040;2023-05-10T08:01:24;3.60;;;1.77;;
31526;SDS011;18136;42.236;-73.040;2023-05-10T08:03:51;2.67;;;1.55;;
31526;SDS011;18136;42.236;-73.040;2023-05-10T08:06:19;3.90;;;1.80;;
31526;SDS011;18136;42.236;-73.040;2023-05-10T08:08:46;2.22;;;1.60;;
31526;SDS011;18136;42.236;-73.040;2023-05-10T08:11:18;3.70;;;1.88;;
31526;SDS011;18136;42.236;-73.040;2023-05-10T08:13:46;2.05;;;1.70;;
31526;SDS011;18136;42.236;-73.040;2023-05-10T08:16:12;2.55;;;1.88;;
31526;SDS011;18136;42.236;-73.040;2023-05-10T08:18:39;3.92;;;1.85;;
31526;SDS011;18136;42.236;-73.040;2023-05-10T08:21:05;3.38;;;2.00;;
31526;SDS011;18136;42.236;-73.040;2023-05-10T08:23:32;3.35;;;1.85;;
31526;SDS011;18136;42.236;-73.040;2023-05-10T08:25:58;2.67;;;1.90;;
31526;SDS011;18136;42.236;-73.040;2023-05-10T08:28:25;4.18;;;1.92;;
31526;SDS011;18136;42.236;-73.040;2023-05-10T08:30:51;3.97;;;1.80;;
31526;SDS011;18136;42.236;-73.040;2023-05-10T08:33:17;4.63;;;2.17;;
31526;SDS011;18136;42.236;-73.040;2023-05-10T08:35:44;3.97;;;1.90;;
31526;SDS011;18136;42.236;-73.040;2023-05-10T08:38:10;4.40;;;1.65;;
31526;SDS011;18136;42.236;-73.040;2023-05-10T08:40:36;3.53;;;1.73;;
31526;SDS011;18136;42.236;-73.040;2023-05-10T08:45:39;3.38;;;1.60;;
31526;SDS011;18136;42.236;-73.040;2023-05-10T08:48:06;3.17;;;1.90;;
31526;SDS011;18136;42.236;-73.040;2023-05-10T08:50:38;2.78;;;1.80;;
31526;SDS011;18136;42.236;-73.040;2023-05-10T08:53:06;4.30;;;2.00;;
31526;SDS011;18136;42.236;-73.040;2023-05-10T08:55:35;3.35;;;1.90;;
31526;SDS011;18136;42.236;-73.040;2023-05-10T08:58:04;4.55;;;2.05;;
31526;SDS011;18136;42.236;-73.040;2023-05-10T09:00:31;3.58;;;1.80;;
31526;SDS011;18136;42.236;-73.040;2023-05-10T09:02:57;3.90;;;1.55;;
31526;SDS011;18136;42.236;-73.040;2023-05-10T09:05:24;4.10;;;1.73;;
31526;SDS011;18136;42.236;-73.040;2023-05-10T09:07:51;1.95;;;1.38;;
31526;SDS011;18136;42.236;-73.040;2023-05-10T09:10:17;5.93;;;1.80;;
31526;SDS011;18136;42.236;-73.040;2023-05-10T09:12:44;4.70;;;1.80;;
31526;SDS011;18136;42.236;-73.040;2023-05-10T09:15:10;5.40;;;1.63;;
31526;SDS011;18136;42.236;-73.040;2023-05-10T09:17:37;5.15;;;1.90;;
31526;SDS011;18136;42.236;-73.040;2023-05-10T09:20:05;3.67;;;2.20;;
31526;SDS011;18136;42.236;-73.040;2023-05-10T09:22:32;6.70;;;2.10;;
31526;SDS011;18136;42.236;-73.040;2023-05-10T09:25:14;3.80;;;1.70;;
31526;SDS011;18136;42.236;-73.040;2023-05-10T09:27:43;3.17;;;1.45;;
31526;SDS011;18136;42.236;-73.040;2023-05-10T09:30:14;2.13;;;1.42;;
31526;SDS011;18136;42.236;-73.040;2023-05-10T09:32:54;3.58;;;1.63;;
31526;SDS011;18136;42.236;-73.040;2023-05-10T09:35:23;2.00;;;1.48;;
31526;SDS011;18136;42.236;-73.040;2023-05-10T09:37:51;3.80;;;2.05;;
31526;SDS011;18136;42.236;-73.040;2023-05-10T09:40:20;8.50;;;2.20;;
31526;SDS011;18136;42.236;-73.040;2023-05-10T09:45:24;3.45;;;2.00;;
31526;SDS011;18136;42.236;-73.040;2023-05-10T09:47:55;4.88;;;2.17;;
31526;SDS011;18136;42.236;-73.040;2023-05-10T09:50:22;4.90;;;2.25;;
31526;SDS011;18136;42.236;-73.040;2023-05-10T09:52:50;5.00;;;2.10;;
31526;SDS011;18136;42.236;-73.040;2023-05-10T09:55:18;5.00;;;2.00;;
31526;SDS011;18136;42.236;-73.040;2023-05-10T09:57:46;6.40;;;2.10;;
31526;SDS011;18136;42.236;-73.040;2023-05-10T10:00:17;4.20;;;1.98;;
31526;SDS011;18136;42.236;-73.040;2023-05-10T10:03:05;3.15;;;2.10;;
31526;SDS011;18136;42.236;-73.040;2023-05-10T10:05:34;3.42;;;1.83;;
31526;SDS011;18136;42.236;-73.040;2023-05-10T10:08:04;13.32;;;2.88;;
31526;SDS011;18136;42.236;-73.040;2023-05-10T10:10:31;24.52;;;3.50;;
31526;SDS011;18136;42.236;-73.040;2023-05-10T10:12:58;9.93;;;2.60;;
31526;SDS011;18136;42.236;-73.040;2023-05-10T10:15:25;3.75;;;1.92;;
31526;SDS011;18136;42.236;-73.040;2023-05-10T10:17:52;6.20;;;2.20;;
31526;SDS011;18136;42.236;-73.040;2023-05-10T10:20:19;4.88;;;2.50;;
31526;SDS011;18136;42.236;-73.040;2023-05-10T10:22:47;8.00;;;2.67;;
31526;SDS011;18136;42.236;-73.040;2023-05-10T10:25:15;6.35;;;1.80;;
31526;SDS011;18136;42.236;-73.040;2023-05-10T10:35:57;4.47;;;1.83;;
31526;SDS011;18136;42.236;-73.040;2023-05-10T10:38:25;2.30;;;1.48;;
31526;SDS011;18136;42.236;-73.040;2023-05-10T10:41:11;5.55;;;1.70;;
31526;SDS011;18136;42.236;-73.040;2023-05-10T10:49:49;5.07;;;1.35;;
31526;SDS011;18136;42.236;-73.040;2023-05-10T10:52:23;4.18;;;1.58;;
31526;SDS011;18136;42.236;-73.040;2023-05-10T11:00:23;2.33;;;1.60;;
31526;SDS011;18136;42.236;-73.040;2023-05-10T11:02:57;2.88;;;1.10;;
31526;SDS011;18136;42.236;-73.040;2023-05-10T11:05:26;4.03;;;1.23;;
31526;SDS011;18136;42.236;-73.040;2023-05-10T11:08:11;1.58;;;1.23;;
31526;SDS011;18136;42.236;-73.040;2023-05-10T11:11:03;4.05;;;1.42;;
31526;SDS011;18136;42.236;-73.040;2023-05-10T11:15:59;2.13;;;1.20;;
31526;SDS011;18136;42.236;-73.040;2023-05-10T11:18:36;2.78;;;1.05;;
31526;SDS011;18136;42.236;-73.040;2023-05-10T11:21:03;2.08;;;1.00;;
31526;SDS011;18136;42.236;-73.040;2023-05-10T11:26:13;3.35;;;1.10;;
31526;SDS011;18136;42.236;-73.040;2023-05-10T11:28:46;2.25;;;1.17;;
31526;SDS011;18136;42.236;-73.040;2023-05-10T11:31:14;2.30;;;0.90;;
31526;SDS011;18136;42.236;-73.040;2023-05-10T11:36:16;1.77;;;1.00;;
31526;SDS011;18136;42.236;-73.040;2023-05-10T11:38:43;3.20;;;0.93;;
31526;SDS011;18136;42.236;-73.040;2023-05-10T11:41:10;1.58;;;0.88;;
31526;SDS011;18136;42.236;-73.040;2023-05-10T11:43:40;1.25;;;0.75;;
31526;SDS011;18136;42.236;-73.040;2023-05-10T11:46:07;3.25;;;1.40;;
31526;SDS011;18136;42.236;-73.040;2023-05-10T11:48:39;3.08;;;1.05;;
31526;SDS011;18136;42.236;-73.040;2023-05-10T11:51:06;2.70;;;1.50;;
31526;SDS011;18136;42.236;-73.040;2023-05-10T11:53:34;1.75;;;1.17;;
31526;SDS011;18136;42.236;-73.040;2023-05-10T11:56:06;1.70;;;1.10;;
31526;SDS011;18136;42.236;-73.040;2023-05-10T12:01:03;2.75;;;1.17;;
31526;SDS011;18136;42.236;-73.040;2023-05-10T12:03:30;1.45;;;0.93;;
31526;SDS011;18136;42.236;-73.040;2023-05-10T12:05:57;2.13;;;0.98;;
31526;SDS011;18136;42.236;-73.040;2023-05-10T12:08:25;2.35;;;1.13;;
31526;SDS011;18136;42.236;-73.040;2023-05-10T12:10:53;1.70;;;1.10;;
31526;SDS011;18136;42.236;-73.040;2023-05-10T12:13:29;2.55;;;0.90;;
31526;SDS011;18136;42.236;-73.040;2023-05-10T12:15:57;2.08;;;0.80;;
31526;SDS011;18136;42.236;-73.040;2023-05-10T12:18:23;3.25;;;0.90;;
31526;SDS011;18136;42.236;-73.040;2023-05-10T12:20:53;1.08;;;0.80;;
31526;SDS011;18136;42.236;-73.040;2023-05-10T12:23:28;1.95;;;1.00;;
31526;SDS011;18136;42.236;-73.040;2023-05-10T12:26:00;4.32;;;1.42;;
31526;SDS011;18136;42.236;-73.040;2023-05-10T12:28:30;3.20;;;1.13;;
31526;SDS011;18136;42.236;-73.040;2023-05-10T12:30:57;1.20;;;1.10;;
31526;SDS011;18136;42.236;-73.040;2023-05-10T12:33:24;4.03;;;0.95;;
31526;SDS011;18136;42.236;-73.040;2023-05-10T12:35:51;2.65;;;0.90;;
31526;SDS011;18136;42.236;-73.040;2023-05-10T12:41:05;1.38;;;0.90;;
31526;SDS011;18136;42.236;-73.040;2023-05-10T12:43:33;0.70;;;0.70;;
31526;SDS011;18136;42.236;-73.040;2023-05-10T12:46:04;1.67;;;1.00;;
31526;SDS011;18136;42.236;-73.040;2023-05-10T12:48:37;3.05;;;1.10;;
31526;SDS011;18136;42.236;-73.040;2023-05-10T12:51:04;2.83;;;0.90;;
31526;SDS011;18136;42.236;-73.040;2023-05-10T12:53:34;1.63;;;1.00;;
31526;SDS011;18136;42.236;-73.040;2023-05-10T12:56:01;1.45;;;0.75;;
31526;SDS011;18136;42.236;-73.040;2023-05-10T12:58:27;2.97;;;0.93;;
31526;SDS011;18136;42.236;-73.040;2023-05-10T13:00:53;4.30;;;0.90;;
31526;SDS011;18136;42.236;-73.040;2023-05-10T13:03:22;1.00;;;0.90;;
31526;SDS011;18136;42.236;-73.040;2023-05-10T13:05:48;2.80;;;1.00;;
31526;SDS011;18136;42.236;-73.040;2023-05-10T13:08:15;2.10;;;1.00;;
31526;SDS011;18136;42.236;-73.040;2023-05-10T13:10:41;1.30;;;0.98;;
31526;SDS011;18136;42.236;-73.040;2023-05-10T13:13:07;2.90;;;0.88;;
31526;SDS011;18136;42.236;-73.040;2023-05-10T13:15:33;2.10;;;0.90;;
31526;SDS011;18136;42.236;-73.040;2023-05-10T13:18:00;4.78;;;0.90;;
31526;SDS011;18136;42.236;-73.040;2023-05-10T13:20:26;3.15;;;0.90;;
31526;SDS011;18136;42.236;-73.040;2023-05-10T13:22:53;1.92;;;0.90;;
31526;SDS011;18136;42.236;-73.040;2023-05-10T13:25:19;4.55;;;0.95;;
31526;SDS011;18136;42.236;-73.040;2023-05-10T13:27:45;2.53;;;1.25;;
31526;SDS011;18136;42.236;-73.040;2023-05-10T13:30:11;1.50;;;1.00;;
31526;SDS011;18136;42.236;-73.040;2023-05-10T13:32:38;1.55;;;1.02;;
31526;SDS011;18136;42.236;-73.040;2023-05-10T13:35:04;1.42;;;1.00;;
31526;SDS011;18136;42.236;-73.040;2023-05-10T13:37:31;2.80;;;0.93;;
31526;SDS011;18136;42.236;-73.040;2023-05-10T13:40:00;2.75;;;1.33;;
31526;SDS011;18136;42.236;-73.040;2023-05-10T13:42:27;1.52;;;1.10;;
31526;SDS011;18136;42.236;-73.040;2023-05-10T13:44:53;1.38;;;1.00;;
31526;SDS011;18136;42.236;-73.040;2023-05-10T13:47:19;1.05;;;0.95;;
31526;SDS011;18136;42.236;-73.040;2023-05-10T13:49:46;3.38;;;0.90;;
31526;SDS011;18136;42.236;-73.040;2023-05-10T13:52:13;3.63;;;1.00;;
31526;SDS011;18136;42.236;-73.040;2023-05-10T13:54:39;2.92;;;1.02;;
31526;SDS011;18136;42.236;-73.040;2023-05-10T13:57:06;1.52;;;0.88;;
31526;SDS011;18136;42.236;-73.040;2023-05-10T13:59:32;4.45;;;0.90;;
31526;SDS011;18136;42.236;-73.040;2023-05-10T14:01:58;4.40;;;1.23;;
31526;SDS011;18136;42.236;-73.040;2023-05-10T14:04:27;1.05;;;0.90;;
31526;SDS011;18136;42.236;-73.040;2023-05-10T14:06:54;1.88;;;0.90;;
31526;SDS011;18136;42.236;-73.040;2023-05-10T14:09:20;5.03;;;1.02;;
31526;SDS011;18136;42.236;-73.040;2023-05-10T14:11:46;1.77;;;1.00;;
31526;SDS011;18136;42.236;-73.040;2023-05-10T14:14:12;1.00;;;0.93;;
31526;SDS011;18136;42.236;-73.040;2023-05-10T14:16:43;2.28;;;1.02;;
31526;SDS011;18136;42.236;-73.040;2023-05-10T14:19:09;1.25;;;0.98;;
31526;SDS011;18136;42.236;-73.040;2023-05-10T14:21:36;2.92;;;0.88;;
31526;SDS011;18136;42.236;-73.040;2023-05-10T14:24:03;2.58;;;0.90;;
31526;SDS011;18136;42.236;-73.040;2023-05-10T14:26:31;1.40;;;0.88;;
31526;SDS011;18136;42.236;-73.040;2023-05-10T14:28:59;1.60;;;1.00;;
31526;SDS011;18136;42.236;-73.040;2023-05-10T14:31:25;3.10;;;1.02;;
31526;SDS011;18136;42.236;-73.040;2023-05-10T14:33:52;2.42;;;1.20;;
31526;SDS011;18136;42.236;-73.040;2023-05-10T14:36:18;2.40;;;1.15;;
31526;SDS011;18136;42.236;-73.040;2023-05-10T14:38:44;1.92;;;0.90;;
31526;SDS011;18136;42.236;-73.040;2023-05-10T14:41:11;1.08;;;0.98;;
31526;SDS011;18136;42.236;-73.040;2023-05-10T14:43:39;2.70;;;1.13;;
31526;SDS011;18136;42.236;-73.040;2023-05-10T14:46:06;0.93;;;0.85;;
31526;SDS011;18136;42.236;-73.040;2023-05-10T14:48:32;2.65;;;0.90;;
31526;SDS011;18136;42.236;-73.040;2023-05-10T14:50:58;3.10;;;1.20;;
31526;SDS011;18136;42.236;-73.040;2023-05-10T14:53:25;1.70;;;1.13;;
31526;SDS011;18136;42.236;-73.040;2023-05-10T14:55:51;1.83;;;1.20;;
31526;SDS011;18136;42.236;-73.040;2023-05-10T14:58:17;1.08;;;0.93;;
31526;SDS011;18136;42.236;-73.040;2023-05-10T15:00:43;2.10;;;1.10;;
31526;SDS011;18136;42.236;-73.040;2023-05-10T15:03:09;1.70;;;0.77;;
31526;SDS011;18136;42.236;-73.040;2023-05-10T15:05:36;2.13;;;1.10;;
31526;SDS011;18136;42.236;-73.040;2023-05-10T15:08:02;3.28;;;0.93;;
31526;SDS011;18136;42.236;-73.040;2023-05-10T15:10:30;1.63;;;1.13;;
31526;SDS011;18136;42.236;-73.040;2023-05-10T15:12:57;3.72;;;1.00;;
31526;SDS011;18136;42.236;-73.040;2023-05-10T15:15:24;1.63;;;1.05;;
31526;SDS011;18136;42.236;-73.040;2023-05-10T15:17:50;3.22;;;1.08;;
31526;SDS011;18136;42.236;-73.040;2023-05-10T15:20:16;2.60;;;1.00;;
31526;SDS011;18136;42.236;-73.040;2023-05-10T15:22:43;4.38;;;1.17;;
31526;SDS011;18136;42.236;-73.040;2023-05-10T15:25:09;1.65;;;0.95;;
31526;SDS011;18136;42.236;-73.040;2023-05-10T15:27:35;2.03;;;1.10;;
31526;SDS011;18136;42.236;-73.040;2023-05-10T15:30:02;5.32;;;0.80;;
31526;SDS011;18136;42.236;-73.040;2023-05-10T15:32:28;7.25;;;1.10;;